Weather at Santorini Airport

Public forecast

Using degrees Celsius for public forecast. Weather courtesy of forecast.io.

Current aviation weather report (METAR) for Santorini Airport

Retrieved 2021/04/17 14:50 UTC (11 minutes ago):

LGSR 171450Z 18015KT 9999 SCT025 21/13 Q1008 RMK BKN080 BKN180 BLU

Aviation forecast (TAF) for Santorini Airport

Retrieved 2021/04/17 12:12 UTC (3 hours ago):

TAF LGSR 171100Z 1712/1812 17025G35KT 9999 FEW020 SCT030 BECMG 1810/1812 VRB05KT